Wheatfield, New York
Current Conditions -  °F | °C
As of 11:53 AM on Friday 31 Oct 2014 (Local Time) from KIAG Reporting Station
Light Rain Light Rain  
Wind Chill: 45°   Ceiling: 4900
Heat Index: 47°   Visibility: 10mi
Dew Point: 42°   Wind: 5mph
Humidity: 83%   Direction: 120°ESE
Pressure: 29.92"   Gusts: NA
Location:  43.1007°N, 78.9485°W
Report Text: KIAG 311553Z 12004KT 10SM -RA FEW031 BKN049 OVC060 08/06 A2992 RMK AO2 SLP140 P0000 T00830056 $
Loading
Personal Weather Stations






























Interactive Weather Map New forecast layout! Learn more

10-Day Weather Forecast

Advertisements
Track Severe Weather on mobile